createdAt,value
2018-06-05T00:00:14.349Z,27.48
2018-06-05T00:02:41.774Z,28.05
2018-06-05T00:14:55.030Z,27.42
2018-06-05T00:17:23.802Z,29.05
2018-06-05T00:19:51.252Z,30.80
2018-06-05T00:22:22.434Z,27.42
2018-06-05T00:24:50.235Z,27.87
2018-06-05T00:27:17.611Z,28.62
2018-06-05T00:29:44.940Z,31.12
2018-06-05T00:32:13.358Z,29.87
2018-06-05T00:34:40.702Z,27.75
2018-06-05T00:37:09.039Z,28.05
2018-06-05T00:39:37.929Z,30.35
2018-06-05T00:42:11.401Z,30.23
2018-06-05T00:44:38.727Z,27.60
2018-06-05T00:47:14.329Z,29.63
2018-06-05T00:49:41.694Z,28.20
2018-06-05T00:52:14.106Z,29.40
2018-06-05T00:54:42.093Z,29.25
2018-06-05T00:57:15.211Z,28.77
2018-06-05T00:59:42.633Z,27.20
2018-06-05T01:02:10.825Z,28.85
2018-06-05T01:04:39.947Z,28.25
2018-06-05T01:07:07.971Z,25.90
2018-06-05T01:09:36.161Z,29.50
2018-06-05T01:12:03.585Z,29.77
2018-06-05T01:14:37.275Z,27.87
2018-06-05T01:17:08.287Z,28.07
2018-06-05T01:19:35.729Z,29.70
2018-06-05T01:22:04.458Z,28.80
2018-06-05T01:24:32.420Z,30.85
2018-06-05T01:27:04.128Z,27.73
2018-06-05T01:29:31.573Z,29.10
2018-06-05T01:31:59.233Z,30.77
2018-06-05T01:34:27.326Z,30.10
2018-06-05T01:36:55.678Z,29.02
2018-06-05T01:39:23.487Z,30.23
2018-06-05T01:41:52.594Z,30.02
2018-06-05T01:44:19.971Z,30.55
2018-06-05T01:46:47.356Z,28.80
2018-06-05T01:49:17.226Z,30.80
2018-06-05T02:01:29.630Z,30.57
2018-06-05T02:03:57.031Z,33.38
2018-06-05T02:06:24.771Z,31.40
2018-06-05T02:08:52.311Z,30.65
2018-06-05T02:11:21.414Z,31.52
2018-06-05T02:13:48.759Z,32.75
2018-06-05T02:16:16.214Z,31.55
2018-06-05T02:18:44.372Z,31.07
2018-06-05T02:21:11.683Z,32.80
2018-06-05T02:23:40.174Z,31.45
2018-06-05T02:26:16.482Z,31.07
2018-06-05T02:28:44.229Z,28.90
2018-06-05T02:31:11.610Z,29.23
2018-06-05T02:33:43.783Z,31.87
2018-06-05T02:36:16.093Z,29.95
2018-06-05T02:38:44.318Z,32.05
2018-06-05T02:41:14.089Z,30.68
2018-06-05T02:43:41.589Z,29.95
2018-06-05T02:46:09.105Z,29.32
2018-06-05T02:48:40.517Z,28.98
2018-06-05T02:51:09.142Z,29.18
2018-06-05T02:53:37.727Z,28.60
2018-06-05T02:56:06.966Z,28.35
2018-06-05T02:58:39.385Z,30.00
2018-06-05T03:01:11.199Z,27.45
2018-06-05T03:03:39.159Z,28.35
2018-06-05T03:06:08.149Z,27.25
2018-06-05T03:08:35.884Z,29.30
2018-06-05T03:11:07.648Z,29.25
2018-06-05T03:13:35.312Z,27.80
2018-06-05T03:16:03.156Z,26.10
2018-06-05T03:18:32.811Z,27.25
2018-06-05T03:21:01.026Z,26.52
2018-06-05T03:23:28.757Z,26.12
2018-06-05T03:25:56.118Z,27.17
2018-06-05T03:28:24.134Z,26.35
2018-06-05T03:30:51.585Z,24.23
2018-06-05T03:33:18.981Z,23.95
2018-06-05T03:35:47.067Z,26.15
2018-06-05T03:38:14.503Z,27.90
2018-06-05T03:40:41.934Z,26.82
2018-06-05T03:52:56.689Z,25.32
2018-06-05T03:55:24.983Z,26.07
2018-06-05T03:57:52.397Z,25.32
2018-06-05T04:00:20.739Z,27.10
2018-06-05T04:02:48.290Z,25.92
2018-06-05T04:05:16.615Z,25.82
2018-06-05T04:17:29.614Z,26.12
2018-06-05T04:20:02.375Z,26.60
2018-06-05T04:22:30.772Z,26.23
2018-06-05T04:24:58.162Z,27.25
2018-06-05T04:27:25.520Z,25.17
2018-06-05T04:29:54.446Z,27.48
2018-06-05T04:32:27.126Z,26.25
2018-06-05T04:34:59.535Z,28.42
2018-06-05T04:37:26.964Z,26.12
2018-06-05T04:39:55.377Z,25.37
2018-06-05T04:42:23.363Z,26.40
2018-06-05T04:44:51.597Z,25.90
2018-06-05T04:47:19.032Z,27.00
2018-06-05T04:49:54.614Z,27.32
2018-06-05T04:52:27.244Z,25.55
2018-06-05T04:55:00.398Z,26.62
2018-06-05T04:57:29.701Z,25.82
2018-06-05T04:59:57.454Z,26.80
2018-06-05T05:12:10.339Z,25.95
2018-06-05T05:14:37.874Z,26.55
2018-06-05T05:17:05.768Z,25.50
2018-06-05T05:29:18.074Z,26.90
2018-06-05T05:31:45.391Z,28.57
2018-06-05T05:34:12.745Z,25.92
2018-06-05T05:36:41.066Z,28.62
2018-06-05T05:39:08.474Z,26.93
2018-06-05T05:41:35.727Z,27.80
2018-06-05T05:44:03.036Z,25.77
2018-06-05T05:46:30.386Z,27.20
2018-06-05T05:48:57.777Z,26.87
2018-06-05T05:51:25.071Z,27.05
2018-06-05T05:53:52.346Z,26.20
2018-06-05T05:56:19.643Z,29.02
2018-06-05T05:58:46.944Z,25.68
2018-06-05T06:01:14.289Z,25.85
2018-06-05T06:03:41.589Z,24.87
2018-06-05T06:06:08.880Z,26.07
2018-06-05T06:08:36.196Z,25.95
2018-06-05T06:11:03.509Z,24.50
2018-06-05T06:13:30.807Z,26.27
2018-06-05T06:15:58.188Z,25.92
2018-06-05T06:18:25.497Z,26.35
2018-06-05T06:20:52.895Z,26.45
2018-06-05T06:23:20.166Z,25.62
2018-06-05T06:25:47.461Z,26.10
2018-06-05T06:28:14.791Z,23.70
2018-06-05T06:30:42.066Z,25.10
2018-06-05T06:33:09.371Z,25.32
2018-06-05T06:35:36.685Z,25.95
2018-06-05T06:38:04.065Z,23.80
2018-06-05T06:40:31.368Z,24.60
2018-06-05T06:42:58.674Z,24.52
2018-06-05T06:45:26.014Z,23.77
2018-06-05T06:47:53.274Z,24.18
2018-06-05T06:50:20.599Z,25.50
2018-06-05T06:52:47.871Z,25.20
2018-06-05T06:55:15.373Z,24.90
2018-06-05T06:57:42.672Z,24.80
2018-06-05T07:00:09.981Z,25.30
2018-06-05T07:02:37.271Z,25.77
2018-06-05T07:05:04.686Z,23.87
2018-06-05T07:07:31.976Z,23.10
2018-06-05T07:09:59.303Z,24.77
2018-06-05T07:12:26.584Z,24.07
2018-06-05T07:14:53.878Z,24.45
2018-06-05T07:17:21.175Z,24.05
2018-06-05T07:19:48.547Z,22.48
2018-06-05T07:22:15.878Z,24.95
2018-06-05T07:24:43.192Z,24.02
2018-06-05T07:27:10.478Z,24.40
2018-06-05T07:29:37.802Z,22.95
2018-06-05T07:32:05.302Z,24.65
2018-06-05T07:34:32.604Z,22.25
2018-06-05T07:36:59.927Z,24.80
2018-06-05T07:39:27.207Z,25.52
2018-06-05T07:41:54.542Z,24.35
2018-06-05T07:44:21.926Z,25.62
2018-06-05T07:46:49.189Z,26.00
2018-06-05T07:49:16.488Z,26.65
2018-06-05T07:51:43.803Z,27.67
2018-06-05T07:54:11.118Z,25.00
2018-06-05T07:56:38.512Z,25.37
2018-06-05T07:59:05.830Z,24.40
2018-06-05T08:01:33.164Z,24.90
2018-06-05T08:04:00.501Z,24.75
2018-06-05T08:06:27.796Z,25.17
2018-06-05T08:08:55.097Z,23.32
2018-06-05T08:11:22.447Z,24.80
2018-06-05T08:13:49.733Z,22.95
2018-06-05T08:16:17.107Z,23.12
2018-06-05T08:18:44.402Z,24.72
2018-06-05T08:21:11.706Z,24.90
2018-06-05T08:23:39.051Z,23.40
2018-06-05T08:26:06.327Z,22.87
2018-06-05T08:28:34.076Z,25.62
2018-06-05T08:31:01.355Z,22.73
2018-06-05T08:33:28.747Z,23.52
2018-06-05T08:35:56.043Z,23.77
2018-06-05T08:38:23.370Z,23.95
2018-06-05T08:40:50.644Z,22.62
2018-06-05T08:43:17.951Z,25.05
2018-06-05T08:45:45.294Z,21.80
2018-06-05T08:48:12.599Z,21.75
2018-06-05T08:50:39.902Z,21.95
2018-06-05T08:53:07.171Z,21.60
2018-06-05T08:55:34.559Z,22.15
2018-06-05T08:58:01.829Z,21.80
2018-06-05T09:00:29.184Z,20.45
2018-06-05T09:02:56.477Z,20.43
2018-06-05T09:05:23.853Z,21.90
2018-06-05T09:07:51.081Z,22.90
2018-06-05T09:10:18.392Z,22.20
2018-06-05T09:12:45.767Z,21.87
2018-06-05T09:15:13.026Z,20.95
2018-06-05T09:17:40.318Z,20.30
2018-06-05T09:20:07.702Z,20.48
2018-06-05T09:22:35.024Z,19.50
2018-06-05T09:25:02.327Z,20.37
2018-06-05T09:27:29.640Z,20.08
2018-06-05T09:29:56.937Z,18.25
2018-06-05T09:32:24.231Z,20.02
2018-06-05T09:34:51.540Z,19.77
2018-06-05T09:37:18.859Z,19.82
2018-06-05T09:39:46.151Z,18.62
2018-06-05T09:42:13.464Z,20.00
2018-06-05T09:44:41.066Z,19.52
2018-06-05T09:47:08.626Z,16.90
2018-06-05T09:49:35.941Z,17.98
2018-06-05T09:52:03.826Z,18.50
2018-06-05T09:54:31.129Z,20.55
2018-06-05T09:56:58.431Z,20.52
2018-06-05T09:59:25.820Z,20.20
2018-06-05T10:01:53.257Z,18.92
2018-06-05T10:04:21.483Z,19.85
2018-06-05T10:06:48.983Z,20.57
2018-06-05T10:09:17.948Z,18.10
2018-06-05T10:11:45.928Z,20.87
2018-06-05T10:14:13.777Z,18.90
2018-06-05T10:16:41.976Z,20.20
2018-06-05T10:19:13.327Z,19.77
2018-06-05T10:21:41.590Z,18.57
2018-06-05T10:24:09.057Z,19.20
2018-06-05T10:26:36.414Z,19.77
2018-06-05T10:34:11.405Z,18.53
2018-06-05T10:36:38.881Z,18.57
2018-06-05T10:48:51.706Z,21.13
2018-06-05T10:51:19.544Z,20.52
2018-06-05T10:53:47.107Z,22.13
2018-06-05T10:56:14.643Z,20.50
2018-06-05T10:58:44.059Z,21.40
2018-06-05T11:01:11.471Z,22.65
2018-06-05T11:03:39.012Z,21.13
2018-06-05T11:06:10.892Z,19.80
2018-06-05T11:08:40.467Z,20.92
2018-06-05T11:11:07.952Z,20.88
2018-06-05T11:13:35.495Z,23.00
2018-06-05T11:16:03.568Z,22.37
2018-06-05T11:18:31.429Z,25.10
2018-06-05T11:20:58.833Z,23.20
2018-06-05T11:23:26.255Z,23.40
2018-06-05T11:25:54.308Z,23.70
2018-06-05T11:28:26.361Z,23.43
2018-06-05T11:30:58.223Z,24.37
2018-06-05T11:33:26.136Z,25.63
2018-06-05T11:35:55.296Z,24.23
2018-06-05T11:38:22.657Z,24.07
2018-06-05T11:40:50.889Z,24.40
2018-06-05T11:43:31.445Z,25.23
2018-06-05T11:45:58.957Z,26.17
2018-06-05T11:48:26.471Z,24.60
2018-06-05T11:50:53.939Z,27.20
2018-06-05T11:53:22.565Z,27.33
2018-06-05T11:55:50.902Z,30.57
2018-06-05T11:58:18.356Z,26.50
2018-06-05T12:00:45.759Z,29.10
2018-06-05T12:03:13.644Z,29.87
2018-06-05T12:05:41.502Z,26.93
2018-06-05T12:08:08.910Z,25.97
2018-06-05T12:10:36.195Z,26.40
2018-06-05T12:13:03.502Z,27.53
2018-06-05T12:15:30.823Z,27.50
2018-06-05T12:17:58.139Z,28.03
2018-06-05T12:20:25.480Z,28.00
2018-06-05T12:22:52.894Z,28.80
2018-06-05T12:25:20.296Z,30.20
2018-06-05T12:27:47.650Z,25.93
2018-06-05T12:30:15.032Z,25.70
2018-06-05T12:32:42.292Z,26.27
2018-06-05T12:35:09.577Z,25.10
2018-06-05T12:37:36.916Z,30.97
2018-06-05T12:40:04.246Z,30.80
2018-06-05T12:42:31.515Z,29.07
2018-06-05T12:44:58.860Z,31.73
2018-06-05T12:47:26.117Z,31.13
2018-06-05T12:49:53.452Z,26.47
2018-06-05T12:52:20.734Z,30.10
2018-06-05T12:54:48.057Z,31.70
2018-06-05T12:57:15.359Z,29.50
2018-06-05T12:59:42.787Z,30.43
2018-06-05T13:02:10.135Z,29.30
2018-06-05T13:04:37.461Z,27.73
2018-06-05T13:07:05.303Z,28.80
2018-06-05T13:09:32.609Z,26.10
2018-06-05T13:12:00.018Z,26.47
2018-06-05T13:14:27.475Z,27.10
2018-06-05T13:16:54.773Z,25.43
2018-06-05T13:19:22.117Z,25.90
2018-06-05T13:21:49.428Z,24.73
2018-06-05T13:24:16.713Z,26.73
2018-06-05T13:26:44.043Z,25.60
2018-06-05T13:29:11.394Z,26.37
2018-06-05T13:31:38.731Z,24.60
2018-06-05T13:34:06.071Z,27.13
2018-06-05T13:36:33.469Z,24.67
2018-06-05T13:39:01.159Z,24.07
2018-06-05T13:41:28.469Z,22.37
2018-06-05T13:43:55.771Z,24.63
2018-06-05T13:46:23.134Z,22.47
2018-06-05T13:48:50.452Z,23.60
2018-06-05T13:51:18.518Z,21.93
2018-06-05T13:53:45.971Z,22.93
2018-06-05T13:56:13.311Z,22.50
2018-06-05T13:58:41.481Z,22.43
2018-06-05T14:01:08.850Z,21.83
2018-06-05T14:03:36.430Z,23.90
2018-06-05T14:06:03.822Z,24.00
2018-06-05T14:08:31.114Z,22.70
2018-06-05T14:10:58.437Z,23.10
2018-06-05T14:13:25.722Z,21.90
2018-06-05T14:15:53.053Z,24.67
2018-06-05T14:18:21.112Z,21.57
2018-06-05T14:20:48.548Z,24.07
2018-06-05T14:23:15.868Z,23.27
2018-06-05T14:25:43.220Z,21.50
2018-06-05T14:28:10.512Z,23.43
2018-06-05T14:30:37.870Z,23.10
2018-06-05T14:33:05.328Z,22.20
2018-06-05T14:35:33.105Z,21.80
2018-06-05T14:38:00.743Z,22.07
2018-06-05T14:40:28.139Z,22.53
2018-06-05T14:42:55.434Z,22.70
2018-06-05T14:45:22.769Z,22.70
2018-06-05T14:47:50.130Z,21.97
2018-06-05T14:50:17.538Z,23.17
2018-06-05T14:52:44.896Z,22.10
2018-06-05T14:55:12.269Z,21.53
2018-06-05T14:57:39.589Z,22.63
2018-06-05T15:00:07.266Z,21.77
2018-06-05T15:02:34.583Z,22.50
2018-06-05T15:05:01.888Z,20.70
2018-06-05T15:07:29.198Z,22.77
2018-06-05T15:09:56.511Z,22.90
2018-06-05T15:12:23.850Z,22.60
2018-06-05T15:14:51.196Z,21.77
2018-06-05T15:17:18.536Z,22.70
2018-06-05T15:19:45.823Z,22.67
2018-06-05T15:22:13.206Z,23.50
2018-06-05T15:24:40.518Z,22.73
2018-06-05T15:27:08.945Z,22.33
2018-06-05T15:29:36.246Z,21.70
2018-06-05T15:32:03.574Z,21.70
2018-06-05T15:34:30.954Z,21.77
2018-06-05T15:36:58.363Z,24.80
2018-06-05T15:39:25.692Z,22.57
2018-06-05T15:41:53.127Z,25.27
2018-06-05T15:44:20.535Z,24.47
2018-06-05T15:46:47.894Z,24.23
2018-06-05T15:49:15.290Z,24.43
2018-06-05T15:51:42.664Z,25.83
2018-06-05T15:54:10.410Z,24.17
2018-06-05T15:56:37.808Z,24.50
2018-06-05T15:59:05.139Z,23.33
2018-06-05T16:01:32.516Z,24.70
2018-06-05T16:03:59.836Z,24.40
2018-06-05T16:06:27.180Z,25.60
2018-06-05T16:08:54.570Z,25.93
2018-06-05T16:11:21.846Z,25.83
2018-06-05T16:13:49.177Z,24.37
2018-06-05T16:16:16.563Z,23.67
2018-06-05T16:18:43.869Z,23.03
2018-06-05T16:21:11.326Z,23.17
2018-06-05T16:23:38.786Z,22.97
2018-06-05T16:26:06.106Z,24.20
2018-06-05T16:28:33.499Z,23.57
2018-06-05T16:31:00.900Z,21.00
2018-06-05T16:33:28.268Z,21.67
2018-06-05T16:35:55.635Z,20.67
2018-06-05T16:38:22.928Z,21.07
2018-06-05T16:40:50.263Z,20.50
2018-06-05T16:43:17.649Z,22.23
2018-06-05T16:45:45.013Z,19.37
2018-06-05T16:48:12.386Z,22.43
2018-06-05T16:50:39.677Z,19.20
2018-06-05T16:53:07.560Z,18.40
2018-06-05T16:55:34.979Z,20.30
2018-06-05T16:58:02.326Z,20.40
2018-06-05T17:00:29.709Z,19.53
2018-06-05T17:02:57.017Z,17.27
2018-06-05T17:05:24.385Z,20.30
2018-06-05T17:07:51.696Z,19.37
2018-06-05T17:10:19.717Z,19.83
2018-06-05T17:22:32.320Z,21.03
2018-06-05T17:24:59.807Z,19.87
2018-06-05T17:27:28.606Z,20.70
2018-06-05T17:29:56.270Z,20.37
2018-06-05T17:32:23.849Z,19.27
2018-06-05T17:34:55.467Z,19.80
2018-06-05T17:37:22.998Z,18.50
2018-06-05T17:49:35.896Z,18.50
2018-06-05T17:52:04.153Z,18.43
2018-06-05T17:54:31.626Z,19.07
2018-06-05T17:56:59.206Z,20.23
2018-06-05T17:59:26.729Z,20.37
2018-06-05T18:01:54.138Z,21.63
2018-06-05T18:04:22.378Z,20.10
2018-06-05T18:06:50.310Z,19.37
2018-06-05T18:09:18.686Z,19.50
2018-06-05T18:11:46.250Z,19.00
2018-06-05T18:14:13.620Z,18.17
2018-06-05T18:16:41.040Z,18.20
2018-06-05T18:19:09.245Z,18.93
2018-06-05T18:21:37.279Z,17.93
2018-06-05T18:24:04.922Z,17.43
2018-06-05T18:26:32.377Z,18.00
2018-06-05T18:28:59.827Z,17.00
2018-06-05T18:31:27.251Z,17.70
2018-06-05T18:33:54.777Z,16.40
2018-06-05T18:36:22.306Z,16.67
2018-06-05T18:38:49.990Z,18.57
2018-06-05T18:41:17.693Z,15.73
2018-06-05T18:43:45.182Z,17.10
2018-06-05T18:46:12.651Z,16.57
2018-06-05T18:48:40.257Z,15.93
2018-06-05T18:51:08.353Z,18.32
2018-06-05T18:53:36.148Z,17.10
2018-06-05T18:56:09.001Z,17.57
2018-06-05T18:58:37.503Z,17.73
2018-06-05T19:01:04.984Z,18.17
2018-06-05T19:03:32.557Z,16.93
2018-06-05T19:15:45.934Z,18.07
2018-06-05T19:18:13.448Z,17.25
2018-06-05T19:20:42.099Z,18.23
2018-06-05T19:23:10.006Z,17.60
2018-06-05T19:25:38.171Z,18.15
2018-06-05T19:28:05.920Z,16.62
2018-06-05T19:30:33.453Z,15.55
2018-06-05T19:33:00.979Z,14.98
2018-06-05T19:35:29.225Z,16.20
2018-06-05T19:37:56.653Z,16.77
2018-06-05T19:40:24.744Z,15.15
2018-06-05T19:42:52.254Z,15.63
2018-06-05T19:45:24.524Z,17.37
2018-06-05T19:47:52.036Z,16.73
2018-06-05T19:50:19.569Z,16.25
2018-06-05T19:52:47.111Z,18.52
2018-06-05T19:55:15.509Z,17.85
2018-06-05T19:57:43.394Z,16.27
2018-06-05T20:00:11.595Z,17.70
2018-06-05T20:02:39.442Z,16.73
2018-06-05T20:05:08.114Z,15.38
2018-06-05T20:17:20.959Z,15.48
2018-06-05T20:19:48.550Z,15.18
2018-06-05T20:22:17.408Z,15.35
2018-06-05T20:24:44.951Z,17.27
2018-06-05T20:27:12.368Z,15.60
2018-06-05T20:29:40.934Z,16.42
2018-06-05T20:32:08.307Z,16.30
2018-06-05T20:34:36.828Z,18.37
2018-06-05T20:37:04.295Z,16.70
2018-06-05T20:39:43.342Z,17.05
2018-06-05T20:42:11.427Z,16.60
2018-06-05T20:44:39.716Z,15.75
2018-06-05T20:47:07.375Z,16.97
2018-06-05T20:49:39.752Z,15.53
2018-06-05T20:52:08.291Z,16.40
2018-06-05T20:54:41.007Z,16.67
2018-06-05T20:57:11.016Z,16.50
2018-06-05T20:59:44.745Z,17.30
2018-06-05T21:02:21.747Z,15.48
2018-06-05T21:04:49.236Z,18.60
2018-06-05T21:10:03.300Z,16.60
2018-06-05T21:12:31.466Z,17.35
2018-06-05T21:14:59.022Z,16.80
2018-06-05T21:17:27.005Z,18.37
2018-06-05T21:19:54.792Z,17.27
2018-06-05T21:32:07.308Z,14.75
2018-06-05T21:34:35.539Z,16.67
2018-06-05T21:37:02.952Z,17.62
2018-06-05T21:39:30.903Z,19.60
2018-06-05T21:41:58.345Z,17.23
2018-06-05T21:44:26.023Z,16.25
2018-06-05T21:46:54.370Z,17.32
2018-06-05T21:49:22.982Z,15.75
2018-06-05T21:51:53.707Z,18.10
2018-06-05T21:54:22.075Z,16.75
2018-06-05T21:56:54.853Z,15.90
2018-06-05T21:59:22.262Z,16.90
2018-06-05T22:01:49.863Z,17.75
2018-06-05T22:04:23.502Z,18.48
2018-06-05T22:06:57.166Z,19.20
2018-06-05T22:19:09.624Z,17.55
2018-06-05T22:21:38.214Z,18.37
2018-06-05T22:24:07.263Z,19.10
2018-06-05T22:26:35.148Z,17.35
2018-06-05T22:29:03.911Z,17.35
2018-06-05T22:31:31.946Z,19.12
2018-06-05T22:34:05.427Z,17.42
2018-06-05T22:36:37.267Z,19.62
2018-06-05T22:39:06.055Z,18.80
2018-06-05T22:41:33.884Z,17.20
2018-06-05T22:44:01.585Z,21.10
2018-06-05T22:46:32.971Z,17.90
2018-06-05T22:49:00.392Z,17.92
2018-06-05T22:51:27.930Z,20.23
2018-06-05T23:03:40.392Z,17.55
2018-06-05T23:06:12.304Z,16.12
2018-06-05T23:08:39.798Z,17.95
2018-06-05T23:11:07.957Z,17.02
2018-06-05T23:13:42.014Z,19.02
2018-06-05T23:16:15.831Z,18.30
2018-06-05T23:18:43.335Z,18.77
2018-06-05T23:21:14.752Z,19.73
2018-06-05T23:23:43.183Z,16.65
2018-06-05T23:26:14.867Z,16.62
2018-06-05T23:28:42.328Z,15.80
2018-06-05T23:31:09.804Z,15.55
2018-06-05T23:33:37.246Z,17.15
2018-06-05T23:36:05.463Z,17.85
2018-06-05T23:38:32.838Z,19.15
2018-06-05T23:41:00.782Z,15.35
2018-06-05T23:43:34.024Z,17.92
2018-06-05T23:46:01.840Z,17.23
2018-06-05T23:48:30.828Z,17.37
2018-06-05T23:51:01.747Z,16.00
2018-06-05T23:53:30.166Z,17.55
2018-06-05T23:56:02.903Z,16.15
2018-06-05T23:58:30.317Z,15.72
